Time;durP1;ratioP1;P1;durP2;ratioP2;P2;SDS_P1;SDS_P2;PMS_P1;PMS_P2;Temp;Humidity;BMP_temperature;BMP_pressure;BME280_temperature;BME280_humidity;BME280_pressure;Samples;Min_cycle;Max_cycle;Signal;HPM_P1;HPM_P2
2021/03/16 00:01:36;;;;;;;;;;;;;;;0.99;70.55;98770.47;5075072;28;20019;-69
2021/03/16 00:04:07;;;;;;;;;;;;;;;1.01;71.13;98768.81;5073725;28;19928;-69
2021/03/16 00:06:48;;;;;;;;;;;;;;;0.97;70.87;98772.09;5074808;28;20409;-69
2021/03/16 00:09:16;;;;;;;;;;;;;;;0.89;71.05;98776.09;5074222;28;19928;-69
2021/03/16 00:11:43;;;;;;;;;;;;;;;0.95;71.11;98781.25;5074698;28;20290;-69
2021/03/16 00:14:11;;;;;;;;;;;;;;;0.96;70.89;98775.41;5074723;28;19924;-69
2021/03/16 00:16:39;;;;;;;;;;;;;;;0.93;71.39;98780.38;5074726;28;19932;-69
2021/03/16 00:19:07;;;;;;;;;;;;;;;0.89;71.23;98776.09;5074604;28;19929;-69
2021/03/16 00:21:35;;;;;;;;;;;;;;;1.02;71.28;98780.59;5074665;28;19978;-69
2021/03/16 00:24:04;;;;;;;;;;;;;;;1.04;71.00;98778.94;5074593;28;20009;-69
2021/03/16 00:26:31;;;;;;;;;;;;;;;1.07;70.98;98774.00;5074569;28;19924;-69
2021/03/16 00:28:59;;;;;;;;;;;;;;;1.02;70.76;98778.06;5074774;28;20325;-69
2021/03/16 00:31:27;;;;;;;;;;;;;;;0.89;70.53;98783.63;5074414;28;19924;-69
2021/03/16 00:33:55;;;;;;;;;;;;;;;0.79;70.79;98786.75;5074472;28;20006;-69
2021/03/16 00:36:22;;;;;;;;;;;;;;;0.80;71.41;98785.94;5074302;28;19970;-69
2021/03/16 00:38:50;;;;;;;;;;;;;;;0.79;71.47;98790.94;5074373;28;19924;-69
2021/03/16 00:41:19;;;;;;;;;;;;;;;0.70;71.62;98795.75;5074219;28;19928;-69
2021/03/16 00:43:48;;;;;;;;;;;;;;;0.58;71.53;98796.28;5074373;28;19967;-69
2021/03/16 00:46:16;;;;;;;;;;;;;;;0.47;71.80;98797.69;5074286;28;19924;-69
2021/03/16 00:48:44;;;;;;;;;;;;;;;0.49;71.96;98793.53;5074139;28;20412;-69
2021/03/16 00:51:14;;;;;;;;;;;;;;;0.64;72.34;98796.44;5072982;28;19924;-69
2021/03/16 00:53:42;;;;;;;;;;;;;;;0.54;72.21;98794.50;5072846;28;19924;-69
2021/03/16 00:56:12;;;;;;;;;;;;;;;0.49;72.16;98796.06;5074424;28;19932;-69
2021/03/16 00:58:40;;;;;;;;;;;;;;;0.40;72.08;98798.34;5074116;28;19942;-69
2021/03/16 01:01:08;;;;;;;;;;;;;;;0.43;72.56;98794.22;5073917;28;19928;-69
2021/03/16 01:03:36;;;;;;;;;;;;;;;0.44;72.21;98792.59;5074097;28;19931;-69
2021/03/16 01:06:05;;;;;;;;;;;;;;;0.47;72.48;98790.16;5074071;28;19925;-69
2021/03/16 01:08:33;;;;;;;;;;;;;;;0.40;72.57;98786.66;5073835;28;19924;-69
2021/03/16 01:11:00;;;;;;;;;;;;;;;0.45;72.73;98786.75;5073938;28;19931;-69
2021/03/16 01:13:28;;;;;;;;;;;;;;;0.44;72.74;98785.91;5074190;28;19997;-69
2021/03/16 01:15:57;;;;;;;;;;;;;;;0.52;72.86;98786.09;5073961;28;19924;-69
2021/03/16 01:18:25;;;;;;;;;;;;;;;0.61;72.60;98787.16;5073663;28;19931;-69
2021/03/16 01:20:52;;;;;;;;;;;;;;;0.49;72.64;98786.03;5072704;28;19947;-69
2021/03/16 01:23:21;;;;;;;;;;;;;;;0.46;72.34;98783.44;5073829;28;19925;-69
2021/03/16 01:26:04;;;;;;;;;;;;;;;0.46;72.43;98796.81;5073961;28;19990;-69
2021/03/16 01:28:33;;;;;;;;;;;;;;;0.40;72.53;98790.81;5073792;28;19924;-69
2021/03/16 01:31:02;;;;;;;;;;;;;;;0.38;72.51;98785.78;5073745;28;19930;-69
2021/03/16 01:33:30;;;;;;;;;;;;;;;0.52;72.67;98786.09;5073750;28;20403;-69
2021/03/16 01:36:01;;;;;;;;;;;;;;;0.53;72.12;98787.78;5073809;28;19925;-69
2021/03/16 01:38:29;;;;;;;;;;;;;;;0.49;72.80;98791.03;5073676;28;19925;-69
2021/03/16 01:40:56;;;;;;;;;;;;;;;0.52;72.49;98786.09;5073744;28;19924;-69
2021/03/16 01:43:25;;;;;;;;;;;;;;;0.64;72.07;98791.41;5073702;28;19924;-69
2021/03/16 01:45:53;;;;;;;;;;;;;;;0.58;72.24;98796.28;5073607;28;19968;-69
2021/03/16 01:48:23;;;;;;;;;;;;;;;0.64;72.34;98791.41;5073645;28;19951;-69
2021/03/16 01:50:51;;;;;;;;;;;;;;;0.68;72.07;98794.03;5073589;28;20334;-69
2021/03/16 01:53:19;;;;;;;;;;;;;;;0.76;72.29;98795.88;5073512;28;20298;-69
2021/03/16 01:55:47;;;;;;;;;;;;;;;0.79;72.14;98806.84;5073472;28;19963;-69
2021/03/16 01:58:15;;;;;;;;;;;;;;;0.71;71.86;98803.31;5073521;28;20363;-69
2021/03/16 02:00:55;;;;;;;;;;;;;;;0.64;72.23;98811.50;5073564;28;19977;-69
2021/03/16 02:03:35;;;;;;;;;;;;;;;0.61;72.65;98806.41;5073569;28;19932;-69
2021/03/16 02:06:17;;;;;;;;;;;;;;;0.55;72.87;98806.25;5073461;28;19925;-69
2021/03/16 02:09:00;;;;;;;;;;;;;;;0.68;72.89;98813.25;5073433;28;20302;-69
2021/03/16 02:11:41;;;;;;;;;;;;;;;0.75;72.75;98814.25;5073281;28;20271;-69
2021/03/16 02:14:22;;;;;;;;;;;;;;;0.75;72.88;98811.75;5073366;28;19974;-69
2021/03/16 02:17:05;;;;;;;;;;;;;;;0.78;72.92;98807.66;5073375;28;20321;-69
2021/03/16 02:19:59;;;;;;;;;;;;;;;1.01;72.88;98806.50;5073439;28;19931;-69
2021/03/16 02:22:39;;;;;;;;;;;;;;;0.95;72.60;98803.88;5073621;28;20019;-69
2021/03/16 02:25:28;;;;;;;;;;;;;;;0.84;72.61;98800.25;5073344;28;20302;-69
2021/03/16 02:28:24;;;;;;;;;;;;;;;0.89;73.37;98801.19;5073535;28;19925;-69
2021/03/16 02:31:05;;;;;;;;;;;;;;;1.02;73.01;98800.69;5074196;28;19932;-69
2021/03/16 02:33:45;;;;;;;;;;;;;;;1.10;72.86;98806.75;5077355;28;20011;-69
2021/03/16 02:36:24;;;;;;;;;;;;;;;1.07;72.97;98813.34;5077089;28;19924;-69
2021/03/16 02:39:04;;;;;;;;;;;;;;;1.05;72.79;98805.78;5060117;28;19925;-69
2021/03/16 02:41:45;;;;;;;;;;;;;;;1.18;73.18;98817.78;5076656;28;19930;-69
2021/03/16 02:44:24;;;;;;;;;;;;;;;1.17;73.20;98813.59;5076666;28;19990;-69
2021/03/16 02:47:05;;;;;;;;;;;;;;;1.14;72.90;98808.50;5076561;28;19925;-69
2021/03/16 02:49:44;;;;;;;;;;;;;;;1.15;73.27;98817.72;5076567;28;20011;-69
2021/03/16 02:52:24;;;;;;;;;;;;;;;1.18;73.24;98817.78;5076372;28;19932;-69
2021/03/16 02:55:03;;;;;;;;;;;;;;;1.23;73.58;98813.72;5076439;28;19925;-69
2021/03/16 02:57:44;;;;;;;;;;;;;;;1.34;73.80;98814.78;5076335;28;19932;-69
2021/03/16 03:00:23;;;;;;;;;;;;;;;1.42;73.36;98826.69;5076360;28;19978;-69
2021/03/16 03:03:04;;;;;;;;;;;;;;;1.52;73.70;98826.03;5076226;28;20298;-69
2021/03/16 03:05:43;;;;;;;;;;;;;;;1.41;73.13;98830.88;5076311;28;19951;-69
2021/03/16 03:08:23;;;;;;;;;;;;;;;1.47;73.63;98830.97;5075979;28;19925;-69
2021/03/16 03:11:01;;;;;;;;;;;;;;;1.37;72.98;98829.09;5076192;28;19951;-69
2021/03/16 03:13:39;;;;;;;;;;;;;;;1.32;73.88;98836.53;5075947;28;19925;-69
2021/03/16 03:16:18;;;;;;;;;;;;;;;1.27;73.45;98832.22;5076052;28;19928;-69
2021/03/16 03:18:58;;;;;;;;;;;;;;;1.22;73.96;98829.59;5075976;28;19962;-69
2021/03/16 03:21:49;;;;;;;;;;;;;;;1.40;74.30;98833.31;5075992;28;20323;-69
2021/03/16 03:24:31;;;;;;;;;;;;;;;1.50;74.00;98827.69;5075833;28;19929;-69
2021/03/16 03:27:15;;;;;;;;;;;;;;;1.60;73.14;98837.13;5075841;28;20007;-69
2021/03/16 03:29:54;;;;;;;;;;;;;;;1.56;73.15;98832.84;5075746;28;20015;-69
2021/03/16 03:32:33;;;;;;;;;;;;;;;1.49;73.65;98834.38;5075707;28;19940;-69
2021/03/16 03:35:14;;;;;;;;;;;;;;;1.50;73.49;98835.22;5075575;28;19974;-69
2021/03/16 03:37:54;;;;;;;;;;;;;;;1.44;73.14;98835.94;5075967;28;19924;-69
2021/03/16 03:40:33;;;;;;;;;;;;;;;1.39;73.01;98834.16;5075860;28;19924;-69
2021/03/16 03:43:12;;;;;;;;;;;;;;;1.45;73.10;98832.63;5075429;28;19967;-69
2021/03/16 03:45:52;;;;;;;;;;;;;;;1.31;72.93;98839.88;5075412;28;19925;-69
2021/03/16 03:48:31;;;;;;;;;;;;;;;1.24;73.50;98838.03;5075456;28;19932;-69
2021/03/16 03:51:12;;;;;;;;;;;;;;;1.20;73.08;98840.44;5075261;28;20005;-69
2021/03/16 03:53:50;;;;;;;;;;;;;;;1.24;73.33;98843.06;5075296;28;19931;-69
2021/03/16 03:56:30;;;;;;;;;;;;;;;1.12;72.70;98847.81;5075195;28;19931;-69
2021/03/16 03:59:08;;;;;;;;;;;;;;;1.05;73.08;98851.00;5075201;28;19935;-69
2021/03/16 04:01:48;;;;;;;;;;;;;;;1.06;73.04;98852.69;5073989;28;19964;-69
2021/03/16 04:04:28;;;;;;;;;;;;;;;0.93;72.72;98853.22;5075106;28;19974;-69
2021/03/16 04:07:09;;;;;;;;;;;;;;;0.98;72.96;98859.22;5074730;28;19936;-69
2021/03/16 04:09:47;;;;;;;;;;;;;;;1.05;72.84;98857.69;5074998;28;19929;-69
2021/03/16 04:12:26;;;;;;;;;;;;;;;1.09;73.38;98860.28;5074789;28;20339;-69
2021/03/16 04:15:07;;;;;;;;;;;;;;;1.06;72.58;98867.75;5074914;28;19928;-69
2021/03/16 04:17:46;;;;;;;;;;;;;;;1.06;72.79;98860.22;5074747;28;20313;-69
2021/03/16 04:20:25;;;;;;;;;;;;;;;1.09;72.63;98872.00;5074738;28;19924;-69
2021/03/16 04:23:05;;;;;;;;;;;;;;;1.01;72.54;98866.78;5074649;28;20351;-69
2021/03/16 04:25:44;;;;;;;;;;;;;;;0.95;72.66;98879.22;5074660;28;19930;-69
2021/03/16 04:28:26;;;;;;;;;;;;;;;0.93;72.75;98874.97;5074548;28;19931;-69
2021/03/16 04:31:04;;;;;;;;;;;;;;;0.87;72.95;98870.63;5074576;28;19924;-69
2021/03/16 04:33:43;;;;;;;;;;;;;;;0.96;73.29;98875.88;5074388;28;19924;-70
2021/03/16 04:36:22;;;;;;;;;;;;;;;1.07;72.75;98879.50;5074459;28;19931;-69
2021/03/16 04:39:01;;;;;;;;;;;;;;;1.03;72.98;98877.72;5074344;28;20001;-69
2021/03/16 04:41:40;;;;;;;;;;;;;;;1.07;72.74;98879.50;5074328;28;19931;-69
2021/03/16 04:44:19;;;;;;;;;;;;;;;1.03;72.58;98886.94;5074400;28;19925;-69
2021/03/16 04:46:57;;;;;;;;;;;;;;;0.92;73.04;98879.13;5074324;28;20013;-69
2021/03/16 04:49:36;;;;;;;;;;;;;;;0.95;73.02;98878.34;5074327;28;19939;-70
2021/03/16 04:52:15;;;;;;;;;;;;;;;0.91;72.62;98887.47;5074225;28;20272;-69
2021/03/16 04:54:55;;;;;;;;;;;;;;;0.95;73.33;98886.75;5073776;28;19924;-69
2021/03/16 04:57:34;;;;;;;;;;;;;;;0.94;72.91;98891.72;5074238;28;19994;-69
2021/03/16 05:00:12;;;;;;;;;;;;;;;0.87;73.54;98893.25;5074143;28;20366;-69
2021/03/16 05:02:49;;;;;;;;;;;;;;;0.92;73.21;98899.22;5074363;28;19932;-69
2021/03/16 05:05:28;;;;;;;;;;;;;;;0.90;73.35;98905.88;5074140;28;19929;-69
2021/03/16 05:08:07;;;;;;;;;;;;;;;0.94;73.41;98906.78;5073889;28;20370;-69
2021/03/16 05:10:47;;;;;;;;;;;;;;;0.85;73.33;98904.06;5074095;28;19931;-69
2021/03/16 05:13:25;;;;;;;;;;;;;;;0.83;73.25;98909.06;5073831;28;19931;-70
2021/03/16 05:16:04;;;;;;;;;;;;;;;0.74;73.57;98905.47;5074066;28;19924;-69
2021/03/16 05:18:42;;;;;;;;;;;;;;;0.60;73.27;98910.97;5073954;28;19928;-69
2021/03/16 05:21:21;;;;;;;;;;;;;;;0.77;73.87;98908.06;5073888;28;20378;-70
2021/03/16 05:23:59;;;;;;;;;;;;;;;0.71;73.92;98912.91;5073918;28;19925;-69
2021/03/16 05:26:39;;;;;;;;;;;;;;;0.64;74.19;98906.88;5073944;28;19982;-70
2021/03/16 05:29:18;;;;;;;;;;;;;;;0.55;73.99;98911.69;5073891;28;19924;-69
2021/03/16 05:31:56;;;;;;;;;;;;;;;0.58;74.30;98911.72;5073815;28;20019;-70
2021/03/16 05:34:35;;;;;;;;;;;;;;;0.66;74.52;98920.31;5074010;28;20382;-69
2021/03/16 05:37:14;;;;;;;;;;;;;;;0.70;74.42;98924.59;5073787;28;19982;-70
2021/03/16 05:39:53;;;;;;;;;;;;;;;0.71;74.67;98918.78;5072787;28;19947;-70
2021/03/16 05:42:33;;;;;;;;;;;;;;;0.84;74.88;98925.81;5073764;28;20000;-70
2021/03/16 05:45:12;;;;;;;;;;;;;;;1.04;75.30;98929.66;5073617;28;19931;-70
2021/03/16 05:47:52;;;;;;;;;;;;;;;1.11;74.62;98931.50;5073734;28;19960;-70
2021/03/16 05:50:31;;;;;;;;;;;;;;;1.12;74.64;98933.22;5073604;28;20446;-70
2021/03/16 05:53:09;;;;;;;;;;;;;;;1.15;74.21;98928.25;5073591;28;19936;-70
2021/03/16 05:55:48;;;;;;;;;;;;;;;1.13;74.33;98926.50;5073503;28;19929;-70
2021/03/16 05:58:28;;;;;;;;;;;;;;;1.34;74.92;98927.88;5073590;28;19932;-69
2021/03/16 06:01:07;;;;;;;;;;;;;;;1.57;75.05;98925.03;5073825;28;20290;-69
2021/03/16 06:03:47;;;;;;;;;;;;;;;1.69;74.67;98928.69;5073502;28;19948;-69
2021/03/16 06:06:25;;;;;;;;;;;;;;;1.88;74.14;98923.22;5074776;28;20279;-70
2021/03/16 06:09:04;;;;;;;;;;;;;;;2.04;74.01;98929.41;5077288;28;19924;-70
2021/03/16 06:11:49;;;;;;;;;;;;;;;2.21;74.94;98939.88;5077192;28;19932;-69
2021/03/16 06:14:32;;;;;;;;;;;;;;;2.48;74.25;98936.19;5077174;28;20405;-69
2021/03/16 06:17:16;;;;;;;;;;;;;;;2.64;74.15;98938.16;5077052;28;19931;-69
2021/03/16 06:19:55;;;;;;;;;;;;;;;2.96;73.71;98942.94;5077445;28;20011;-69
2021/03/16 06:22:33;;;;;;;;;;;;;;;3.18;73.46;98942.47;5076931;28;19924;-69
2021/03/16 06:25:13;;;;;;;;;;;;;;;3.29;72.50;98940.97;5077314;28;19974;-70
2021/03/16 06:27:58;;;;;;;;;;;;;;;3.44;72.49;98941.22;5076830;28;19924;-70
2021/03/16 06:30:39;;;;;;;;;;;;;;;3.61;72.80;98951.56;5076834;28;19931;-70
2021/03/16 06:33:18;;;;;;;;;;;;;;;3.75;72.54;98952.59;5076639;28;20019;-70
2021/03/16 06:35:58;;;;;;;;;;;;;;;3.86;71.87;98946.88;5076808;28;19925;-70
2021/03/16 06:38:38;;;;;;;;;;;;;;;4.02;71.86;98961.44;5076703;28;19924;-70
2021/03/16 06:41:18;;;;;;;;;;;;;;;4.02;71.53;98958.91;5076700;28;19925;-70
2021/03/16 06:43:59;;;;;;;;;;;;;;;4.02;71.64;98961.44;5076568;28;19924;-70
2021/03/16 06:46:38;;;;;;;;;;;;;;;4.12;71.53;98969.13;5076539;28;19925;-70
2021/03/16 06:49:18;;;;;;;;;;;;;;;4.23;70.94;98978.53;5076559;28;19925;-70
2021/03/16 06:51:55;;;;;;;;;;;;;;;4.42;70.93;98969.50;5076490;28;19990;-71
2021/03/16 06:54:34;;;;;;;;;;;;;;;4.62;70.77;98983.22;5076354;28;20035;-70
2021/03/16 06:57:23;;;;;;;;;;;;;;;4.83;70.71;98978.41;5076388;28;19974;-71
2021/03/16 07:00:20;;;;;;;;;;;;;;;5.01;70.19;98988.72;5076352;28;20390;-71
2021/03/16 07:02:58;;;;;;;;;;;;;;;5.27;69.88;98991.47;5076271;28;20014;-71
2021/03/16 07:05:37;;;;;;;;;;;;;;;5.42;69.11;98987.38;5076253;28;19924;-71
2021/03/16 07:08:17;;;;;;;;;;;;;;;5.63;68.95;98990.94;5076022;28;19924;-71
2021/03/16 07:10:56;;;;;;;;;;;;;;;5.47;67.92;98994.19;5076138;28;19924;-71
2021/03/16 07:13:34;;;;;;;;;;;;;;;5.62;68.04;98997.69;5075959;28;19931;-70
2021/03/16 07:16:13;;;;;;;;;;;;;;;5.86;67.78;98999.56;5075954;28;19924;-71
2021/03/16 07:18:53;;;;;;;;;;;;;;;6.18;67.05;98993.03;5075932;28;19948;-71
2021/03/16 07:21:37;;;;;;;;;;;;;;;6.37;66.37;98997.34;5075886;28;19977;-72
2021/03/16 07:24:18;;;;;;;;;;;;;;;6.59;65.75;99001.69;5075708;28;19924;-71
2021/03/16 07:26:55;;;;;;;;;;;;;;;6.69;64.96;98998.31;5076155;28;20377;-71
2021/03/16 07:29:35;;;;;;;;;;;;;;;6.75;64.82;99003.44;5075823;28;19925;-72
2021/03/16 07:32:14;;;;;;;;;;;;;;;6.94;64.51;99004.31;5075203;28;19924;-72
2021/03/16 07:35:01;;;;;;;;;;;;;;;7.11;63.79;99011.97;5075691;28;20007;-71
2021/03/16 07:37:41;;;;;;;;;;;;;;;7.39;63.75;99001.88;5075606;28;19925;-71
2021/03/16 07:40:20;;;;;;;;;;;;;;;7.61;63.08;99001.88;5075502;28;19932;-71
2021/03/16 07:43:00;;;;;;;;;;;;;;;7.67;61.50;99005.28;5075564;28;19928;-70
2021/03/16 07:45:39;;;;;;;;;;;;;;;7.73;61.52;99010.34;5075470;28;20251;-71
2021/03/16 07:48:19;;;;;;;;;;;;;;;7.97;61.23;99009.47;5074698;28;20005;-72
2021/03/16 07:51:09;;;;;;;;;;;;;;;8.19;60.51;99005.19;5075538;28;19925;-72
2021/03/16 07:53:54;;;;;;;;;;;;;;;8.47;60.48;99007.69;5075269;28;20016;-70
2021/03/16 07:56:34;;;;;;;;;;;;;;;8.79;58.87;99010.13;5075207;28;19924;-70
2021/03/16 07:59:29;;;;;;;;;;;;;;;9.09;58.25;99004.91;5075077;28;19925;-71
2021/03/16 08:02:07;;;;;;;;;;;;;;;9.17;57.77;99003.13;5074953;28;20443;-71
2021/03/16 08:04:46;;;;;;;;;;;;;;;9.21;57.90;99014.97;5074982;28;19924;-71
2021/03/16 08:07:28;;;;;;;;;;;;;;;9.27;58.02;99014.94;5074626;28;20397;-71
2021/03/16 08:10:10;;;;;;;;;;;;;;;9.37;58.39;99014.03;5074773;28;19929;-71
2021/03/16 08:12:58;;;;;;;;;;;;;;;9.29;57.63;99017.47;5074596;28;20416;-71
2021/03/16 08:15:41;;;;;;;;;;;;;;;9.04;57.47;99010.84;5074709;28;20383;-71
2021/03/16 08:18:27;;;;;;;;;;;;;;;9.05;57.83;99018.47;5074742;28;19924;-71
2021/03/16 08:21:09;;;;;;;;;;;;;;;9.15;58.59;99025.22;5074487;28;20291;-71
2021/03/16 08:23:49;;;;;;;;;;;;;;;9.22;58.58;99037.03;5074805;28;19951;-70
2021/03/16 08:26:28;;;;;;;;;;;;;;;9.09;57.65;99034.59;5074553;28;20409;-72
2021/03/16 08:29:07;;;;;;;;;;;;;;;8.90;57.50;99033.81;5073744;28;20034;-71
2021/03/16 08:31:45;;;;;;;;;;;;;;;8.80;58.06;99037.25;5074338;28;20390;-71
2021/03/16 08:34:24;;;;;;;;;;;;;;;8.66;58.36;99039.03;5074691;28;20452;-70
2021/03/16 08:37:03;;;;;;;;;;;;;;;8.45;58.59;99041.59;5074377;28;19933;-70
2021/03/16 08:39:43;;;;;;;;;;;;;;;8.30;58.61;99041.66;5074426;28;19947;-71
2021/03/16 08:42:22;;;;;;;;;;;;;;;8.19;59.21;99050.94;5073907;28;19931;-71
2021/03/16 08:45:01;;;;;;;;;;;;;;;8.13;58.71;99052.66;5074275;28;19925;-71
2021/03/16 08:47:39;;;;;;;;;;;;;;;8.10;58.87;99052.69;5074255;28;19934;-71
2021/03/16 08:50:22;;;;;;;;;;;;;;;8.27;59.79;99042.50;5074329;28;20023;-72
2021/03/16 08:53:00;;;;;;;;;;;;;;;8.70;59.12;99055.97;5074069;28;20378;-71
2021/03/16 08:55:40;;;;;;;;;;;;;;;9.16;58.82;99046.44;5074158;28;20154;-71
2021/03/16 08:58:21;;;;;;;;;;;;;;;9.54;58.54;99051.28;5074436;28;19934;-71
2021/03/16 09:01:00;;;;;;;;;;;;;;;9.85;57.47;99057.84;5057608;28;19929;-71
2021/03/16 09:03:38;;;;;;;;;;;;;;;10.03;56.68;99060.22;5074118;28;19925;-71
2021/03/16 09:06:17;;;;;;;;;;;;;;;10.12;55.67;99064.44;5073850;28;19924;-71
2021/03/16 09:08:56;;;;;;;;;;;;;;;9.98;55.74;99062.00;5074094;28;19974;-71
2021/03/16 09:11:42;;;;;;;;;;;;;;;9.74;55.51;99072.38;5074088;28;19924;-71
2021/03/16 09:14:21;;;;;;;;;;;;;;;9.72;55.18;99066.41;5074157;28;20267;-72
2021/03/16 09:17:01;;;;;;;;;;;;;;;9.81;55.22;99061.28;5074002;28;19929;-72
2021/03/16 09:19:40;;;;;;;;;;;;;;;10.00;54.69;99065.38;5073932;28;19954;-71
2021/03/16 09:22:19;;;;;;;;;;;;;;;10.14;54.02;99071.22;5073921;28;20024;-72
2021/03/16 09:24:57;;;;;;;;;;;;;;;10.43;53.62;99065.84;5073785;28;19924;-72
2021/03/16 09:27:39;;;;;;;;;;;;;;;10.77;53.41;99062.91;5073886;28;19932;-71
2021/03/16 09:30:18;;;;;;;;;;;;;;;11.15;52.91;99066.72;5073890;28;19955;-72
2021/03/16 09:32:57;;;;;;;;;;;;;;;11.29;51.61;99067.38;5073688;28;19978;-71
2021/03/16 09:35:36;;;;;;;;;;;;;;;11.30;51.51;99072.44;5073694;28;20027;-71
2021/03/16 09:38:15;;;;;;;;;;;;;;;11.31;51.08;99080.97;5073874;28;19974;-72
2021/03/16 09:40:53;;;;;;;;;;;;;;;11.11;51.25;99072.72;5076129;28;20028;-72
2021/03/16 09:43:36;;;;;;;;;;;;;;;10.97;51.32;99075.44;5076637;28;19925;-71
2021/03/16 09:46:08;;;;;;;;;;;;;;;10.93;51.89;99083.16;5076390;28;19924;-70
2021/03/16 09:48:38;;;;;;;;;;;;;;;10.94;52.36;99080.56;5077620;28;20072;-70
2021/03/16 09:51:10;;;;;;;;;;;;;;;10.92;52.16;99081.47;5076713;28;19964;-70
2021/03/16 09:53:38;;;;;;;;;;;;;;;10.80;52.34;99082.44;5076592;28;19954;-70
2021/03/16 09:56:09;;;;;;;;;;;;;;;10.62;52.28;99088.63;5077485;28;19931;-70
2021/03/16 09:58:38;;;;;;;;;;;;;;;10.61;52.47;99089.47;5077712;28;19928;-70
2021/03/16 10:01:06;;;;;;;;;;;;;;;10.96;52.69;99101.84;5077743;28;20332;-70
2021/03/16 10:03:34;;;;;;;;;;;;;;;11.42;52.13;99094.44;5077200;28;19929;-71
2021/03/16 10:06:02;;;;;;;;;;;;;;;11.83;51.73;99094.72;5077269;28;20371;-71
2021/03/16 10:08:31;;;;;;;;;;;;;;;11.97;51.21;99095.34;5075451;28;19925;-71
2021/03/16 10:10:59;;;;;;;;;;;;;;;11.71;51.21;99096.63;5077158;28;19925;-71
2021/03/16 10:13:30;;;;;;;;;;;;;;;11.42;51.59;99099.56;5077191;28;20286;-71
2021/03/16 10:16:06;;;;;;;;;;;;;;;11.29;51.57;99098.03;5077124;28;20370;-71
2021/03/16 10:18:39;;;;;;;;;;;;;;;11.29;51.78;99103.13;5059206;28;19925;-71
2021/03/16 10:21:08;;;;;;;;;;;;;;;11.45;51.58;99099.50;5076155;28;20378;-71
2021/03/16 10:23:36;;;;;;;;;;;;;;;11.25;51.97;99106.59;5076954;28;19924;-71
2021/03/16 10:26:05;;;;;;;;;;;;;;;11.11;51.49;99100.81;5076795;28;20031;-71
2021/03/16 10:28:36;;;;;;;;;;;;;;;10.97;52.37;99100.13;5076804;28;19925;-71
2021/03/16 10:31:12;;;;;;;;;;;;;;;10.75;52.16;99100.34;5076744;28;19931;-71
2021/03/16 10:33:41;;;;;;;;;;;;;;;10.44;52.83;99108.34;5076712;28;19924;-71
2021/03/16 10:36:09;;;;;;;;;;;;;;;10.31;53.01;99116.97;5076615;28;20405;-71
2021/03/16 10:38:37;;;;;;;;;;;;;;;10.18;53.79;99111.13;5076638;28;20251;-72
2021/03/16 10:41:05;;;;;;;;;;;;;;;10.21;55.26;99120.47;5075479;28;19938;-73
2021/03/16 13:39:44;;;;;;;11.52;5.10;;;;;;;23.95;40.17;98932.94;5118181;27;20377;-39
2021/03/16 13:42:30;;;;;;;11.55;5.25;;;;;;;23.78;40.21;98952.31;5114922;28;20138;-42
